Time;durP1;ratioP1;P1;durP2;ratioP2;P2;SDS_P1;SDS_P2;PMS_P1;PMS_P2;Temp;Humidity;BMP_temperature;BMP_pressure;BME280_temperature;BME280_humidity;BME280_pressure;Samples;Min_cycle;Max_cycle;Signal;HPM_P1;HPM_P2
2023/01/15 00:01:03;;;;;;;9.95;1.02;;;8.20;99.90;;;;;;5069902;28;20025;-39
2023/01/15 00:03:29;;;;;;;9.82;0.85;;;8.20;99.90;;;;;;5068235;28;20062;-34
2023/01/15 00:05:55;;;;;;;7.72;1.73;;;8.20;99.90;;;;;;5071019;28;20028;-36
2023/01/15 00:08:20;;;;;;;7.38;1.20;;;8.20;99.90;;;;;;5071214;28;20039;-39
2023/01/15 00:10:46;;;;;;;6.20;1.25;;;8.10;99.90;;;;;;5070343;28;20539;-33
2023/01/15 00:13:12;;;;;;;7.78;2.10;;;8.20;99.90;;;;;;5071564;28;20062;-34
2023/01/15 00:15:37;;;;;;;4.35;1.05;;;8.20;99.90;;;;;;5071900;28;20476;-38
2023/01/15 00:18:03;;;;;;;12.38;1.60;;;8.20;99.90;;;;;;5072619;28;20388;-37
2023/01/15 00:20:29;;;;;;;11.05;1.67;;;8.20;99.90;;;;;;5071862;28;20027;-34
2023/01/15 00:22:55;;;;;;;8.13;1.08;;;8.20;99.90;;;;;;5069560;28;20041;-37
2023/01/15 00:28:05;;;;;;;12.25;1.95;;;8.20;99.90;;;;;;5064110;28;20115;-35
2023/01/15 00:30:31;;;;;;;10.13;1.13;;;8.20;99.90;;;;;;5072752;28;20465;-37
2023/01/15 00:32:58;;;;;;;20.75;1.70;;;8.20;99.90;;;;;;5065725;28;20401;-39
2023/01/15 00:35:24;;;;;;;11.23;1.40;;;8.10;99.90;;;;;;5065636;28;20157;-37
2023/01/15 00:37:50;;;;;;;10.60;2.28;;;8.20;99.90;;;;;;5062771;28;20099;-36
2023/01/15 00:40:17;;;;;;;14.02;1.35;;;8.20;99.90;;;;;;5070914;28;20103;-40
2023/01/15 00:42:43;;;;;;;5.60;0.52;;;8.20;99.90;;;;;;5069338;28;20484;-40
2023/01/15 00:45:11;;;;;;;4.65;1.15;;;8.20;99.90;;;;;;5068736;28;20086;-38
2023/01/15 00:47:38;;;;;;;3.08;0.73;;;8.10;99.90;;;;;;5070785;28;20032;-37
2023/01/15 00:50:05;;;;;;;3.42;1.98;;;8.20;99.90;;;;;;5070438;28;20050;-39
2023/01/15 00:52:31;;;;;;;10.17;1.63;;;8.20;99.90;;;;;;5068206;28;20054;-38
2023/01/15 00:54:57;;;;;;;5.78;1.13;;;8.20;99.90;;;;;;5066278;28;20271;-38
2023/01/15 00:57:22;;;;;;;8.98;1.65;;;8.20;99.90;;;;;;5072562;28;20021;-38
2023/01/15 00:59:48;;;;;;;8.32;1.02;;;8.20;99.90;;;;;;5072537;28;20076;-40
2023/01/15 01:02:14;;;;;;;12.43;2.47;;;8.10;99.90;;;;;;5069983;28;20032;-36
2023/01/15 01:04:39;;;;;;;5.13;1.48;;;8.10;99.90;;;;;;5072083;28;20028;-39
2023/01/15 01:07:05;;;;;;;7.05;1.90;;;8.10;99.90;;;;;;5065597;28;20167;-38
2023/01/15 01:09:31;;;;;;;11.45;2.08;;;8.10;99.90;;;;;;5070072;28;20362;-38
2023/01/15 01:11:56;;;;;;;9.38;1.70;;;8.10;99.90;;;;;;5069738;28;20198;-35
2023/01/15 01:14:22;;;;;;;14.30;1.75;;;8.10;99.90;;;;;;5071605;28;20081;-37
2023/01/15 01:16:48;;;;;;;6.07;1.25;;;8.10;99.90;;;;;;5072866;28;20059;-37
2023/01/15 01:19:17;;;;;;;4.15;1.73;;;8.10;99.90;;;;;;5070683;28;20028;-35
2023/01/15 01:21:43;;;;;;;9.50;1.35;;;8.10;99.90;;;;;;5071842;28;20029;-37
2023/01/15 01:24:11;;;;;;;25.60;1.67;;;8.10;99.90;;;;;;5069234;28;20472;-35
2023/01/15 01:26:38;;;;;;;3.35;0.60;;;8.10;99.90;;;;;;5072082;28;20024;-34
2023/01/15 01:29:03;;;;;;;5.95;2.20;;;8.10;99.90;;;;;;5068108;28;20536;-38
2023/01/15 01:31:29;;;;;;;11.68;1.13;;;8.10;99.90;;;;;;5065987;28;20107;-36
2023/01/15 01:33:56;;;;;;;11.15;1.85;;;8.00;99.90;;;;;;5062797;28;20028;-35
2023/01/15 01:36:28;;;;;;;6.82;1.02;;;8.00;99.90;;;;;;5061017;28;20033;-41
2023/01/15 01:38:54;;;;;;;11.80;1.88;;;7.90;99.90;;;;;;5070633;28;20028;-36
2023/01/15 01:41:19;;;;;;;5.85;1.40;;;7.90;99.90;;;;;;5061869;28;20045;-39
2023/01/15 01:44:01;;;;;;;13.68;1.35;;;7.90;99.90;;;;;;5079537;28;20055;-35
2023/01/15 01:46:29;;;;;;;12.52;1.65;;;7.90;99.90;;;;;;5069493;28;20484;-39
2023/01/15 01:49:03;;;;;;;6.80;1.27;;;7.90;99.90;;;;;;5070219;28;20038;-38
2023/01/15 01:51:47;;;;;;;14.43;1.25;;;7.90;99.90;;;;;;5066029;28;20044;-34
2023/01/15 01:54:16;;;;;;;10.38;1.17;;;7.90;99.90;;;;;;5066327;28;20044;-39
2023/01/15 01:56:42;;;;;;;4.05;1.05;;;7.80;99.90;;;;;;5066533;28;20508;-35
2023/01/15 01:59:08;;;;;;;6.38;1.70;;;7.80;99.90;;;;;;5070449;28;20020;-35
2023/01/15 02:01:34;;;;;;;7.20;2.15;;;7.80;99.90;;;;;;5074423;28;20107;-39
2023/01/15 02:04:00;;;;;;;12.50;1.08;;;7.80;99.90;;;;;;5074280;28;20136;-38
2023/01/15 02:06:27;;;;;;;6.75;1.20;;;7.80;99.90;;;;;;5077184;28;20481;-37
2023/01/15 02:08:53;;;;;;;6.07;0.93;;;7.80;99.90;;;;;;5076044;28;20059;-36
2023/01/15 02:11:21;;;;;;;6.55;0.95;;;7.90;99.90;;;;;;5076064;28;20485;-38
2023/01/15 02:14:11;;;;;;;14.90;2.50;;;7.80;99.90;;;;;;5075236;28;20036;-38
2023/01/15 02:17:15;;;;;;;11.13;1.70;;;7.80;99.90;;;;;;5072747;28;20037;-35
2023/01/15 02:20:01;;;;;;;5.38;1.10;;;7.80;99.90;;;;;;5075011;28;20477;-38
2023/01/15 02:22:48;;;;;;;13.90;1.58;;;7.70;99.90;;;;;;5075358;28;20023;-37
2023/01/15 02:25:30;;;;;;;4.77;1.20;;;7.70;99.90;;;;;;5075951;28;20082;-34
2023/01/15 02:28:06;;;;;;;9.80;1.65;;;7.70;99.90;;;;;;5076088;28;20020;-38
2023/01/15 02:30:39;;;;;;;6.60;0.73;;;7.70;99.90;;;;;;5074271;28;20025;-38
2023/01/15 02:33:11;;;;;;;5.90;0.98;;;7.70;99.90;;;;;;5067634;28;20025;-39
2023/01/15 02:35:49;;;;;;;12.20;2.58;;;7.60;99.90;;;;;;5075496;28;20496;-38
2023/01/15 02:38:20;;;;;;;7.28;1.40;;;7.60;99.90;;;;;;5074745;28;20026;-37
2023/01/15 02:40:47;;;;;;;9.13;1.30;;;7.60;99.90;;;;;;5075267;28;20029;-38
2023/01/15 02:43:14;;;;;;;10.45;0.88;;;7.60;99.90;;;;;;5073651;28;20041;-36
2023/01/15 02:45:43;;;;;;;6.50;0.95;;;7.60;99.90;;;;;;5072636;28;20065;-37
2023/01/15 02:48:13;;;;;;;14.63;1.38;;;7.60;99.90;;;;;;5071268;28;20078;-36
2023/01/15 02:50:44;;;;;;;8.18;1.70;;;7.60;99.90;;;;;;5071933;28;20503;-35
2023/01/15 02:53:16;;;;;;;7.28;1.35;;;7.60;99.90;;;;;;5069223;28;20047;-33
2023/01/15 02:55:46;;;;;;;19.88;1.27;;;7.60;99.90;;;;;;5074491;28;20477;-39
2023/01/15 02:58:18;;;;;;;10.45;1.25;;;7.60;99.90;;;;;;5075583;28;20021;-37
2023/01/15 03:00:48;;;;;;;6.28;1.10;;;7.70;99.90;;;;;;5073927;28;20473;-37
2023/01/15 03:03:18;;;;;;;6.18;1.27;;;7.60;99.90;;;;;;5075262;28;20020;-35
2023/01/15 03:06:02;;;;;;;3.90;1.13;;;7.60;99.90;;;;;;5077105;28;20538;-36
2023/01/15 03:08:28;;;;;;;6.53;0.88;;;7.60;99.90;;;;;;5075193;28;20397;-34
2023/01/15 03:10:54;;;;;;;8.05;1.35;;;7.60;99.90;;;;;;5074140;28;20039;-37
2023/01/15 03:13:45;;;;;;;10.05;1.02;;;7.60;99.90;;;;;;5074525;28;20099;-36
2023/01/15 03:16:34;;;;;;;8.30;1.05;;;7.60;99.90;;;;;;5073235;28;20048;-38
2023/01/15 03:19:04;;;;;;;2.63;0.68;;;7.70;99.90;;;;;;5077548;28;20028;-38
2023/01/15 03:21:45;;;;;;;9.63;1.52;;;7.60;99.90;;;;;;5074022;28;20472;-38
2023/01/15 03:24:13;;;;;;;15.75;1.67;;;7.70;99.90;;;;;;5074901;28;20017;-44
2023/01/15 03:26:39;;;;;;;;;;;7.60;99.90;;;;;;5075201;28;20028;-43
2023/01/15 03:29:07;;;;;;;6.25;0.75;;;7.50;99.90;;;;;;5074617;28;20418;-40
2023/01/15 03:31:35;;;;;;;14.35;1.50;;;7.50;99.90;;;;;;5073194;28;20032;-43
2023/01/15 03:34:01;;;;;;;11.55;0.88;;;7.50;99.90;;;;;;5074539;28;20040;-40
2023/01/15 03:36:26;;;;;;;7.30;1.10;;;7.40;99.90;;;;;;5074665;28;20063;-43
2023/01/15 03:38:53;;;;;;;10.68;1.20;;;7.40;99.90;;;;;;5071979;28;20068;-37
2023/01/15 03:41:39;;;;;;;8.32;2.28;;;7.40;99.90;;;;;;5074563;28;20564;-38
2023/01/15 03:44:31;;;;;;;8.52;0.60;;;7.40;99.90;;;;;;5074575;28;20086;-38
2023/01/15 03:47:15;;;;;;;8.40;1.17;;;7.40;99.90;;;;;;5072482;28;20036;-39
2023/01/15 03:50:01;;;;;;;6.57;0.93;;;7.30;99.90;;;;;;5062682;28;20063;-35
2023/01/15 03:52:33;;;;;;;7.75;1.70;;;7.30;99.90;;;;;;5072977;28;20033;-37
2023/01/15 03:55:06;;;;;;;2.10;0.63;;;7.30;99.90;;;;;;5072938;28;20036;-38
2023/01/15 03:57:41;;;;;;;5.30;0.80;;;7.30;99.90;;;;;;5073544;28;20032;-38
2023/01/15 04:00:32;;;;;;;4.97;1.08;;;7.30;99.90;;;;;;5074952;28;20039;-38
2023/01/15 04:03:00;;;;;;;2.30;0.80;;;7.30;99.90;;;;;;5065700;28;20564;-37
2023/01/15 04:05:27;;;;;;;2.40;0.82;;;7.30;99.90;;;;;;5072914;28;20036;-36
2023/01/15 04:07:55;;;;;;;5.40;1.25;;;7.20;99.90;;;;;;5073408;28;20029;-37
2023/01/15 04:10:21;;;;;;;10.13;1.10;;;7.20;99.90;;;;;;5073921;28;20115;-37
2023/01/15 04:12:46;;;;;;;15.05;0.98;;;7.20;99.90;;;;;;5073166;28;20102;-37
2023/01/15 04:15:12;;;;;;;10.27;1.15;;;7.20;99.90;;;;;;5074347;28;20095;-37
2023/01/15 04:17:38;;;;;;;12.35;1.15;;;7.30;99.90;;;;;;5072830;28;20031;-38
2023/01/15 04:20:05;;;;;;;13.25;1.30;;;7.30;99.90;;;;;;5073215;28;20393;-38
2023/01/15 04:22:31;;;;;;;7.78;1.02;;;7.30;99.90;;;;;;5071812;28;20522;-38
2023/01/15 04:24:56;;;;;;;11.85;0.90;;;7.40;99.90;;;;;;5071199;28;20020;-38
2023/01/15 04:27:22;;;;;;;6.82;1.25;;;7.40;99.90;;;;;;5073607;28;20582;-37
2023/01/15 04:29:48;;;;;;;11.73;0.80;;;7.40;99.90;;;;;;5070394;28;20480;-34
2023/01/15 04:32:14;;;;;;;6.07;2.50;;;7.30;99.90;;;;;;5071669;28;20431;-37
2023/01/15 04:34:39;;;;;;;8.65;0.90;;;7.30;99.90;;;;;;5070837;28;20468;-39
2023/01/15 04:37:05;;;;;;;8.43;1.40;;;7.30;99.90;;;;;;5072254;28;20116;-39
2023/01/15 04:39:31;;;;;;;10.38;0.68;;;7.30;99.90;;;;;;5072659;28;20111;-38
2023/01/15 04:44:41;;;;;;;19.63;1.70;;;7.30;99.90;;;;;;5053364;28;20052;-36
2023/01/15 04:47:07;;;;;;;8.15;2.10;;;7.30;99.90;;;;;;5054523;28;20033;-37
2023/01/15 04:49:33;;;;;;;12.07;1.02;;;7.30;99.90;;;;;;5071053;28;20051;-38
2023/01/15 04:51:58;;;;;;;3.20;1.17;;;7.30;99.90;;;;;;5071517;28;20068;-36
2023/01/15 04:54:24;;;;;;;8.27;0.98;;;7.20;99.90;;;;;;5072249;28;20095;-38
2023/01/15 04:56:52;;;;;;;4.35;0.82;;;7.30;99.90;;;;;;5073145;28;20054;-38
2023/01/15 04:59:22;;;;;;;6.40;1.05;;;7.20;99.90;;;;;;5073039;28;20032;-33
2023/01/15 05:01:49;;;;;;;4.93;0.70;;;7.30;99.90;;;;;;5072276;28;20032;-35
2023/01/15 05:04:14;;;;;;;7.22;1.10;;;7.30;99.90;;;;;;5071721;28;20507;-38
2023/01/15 05:06:40;;;;;;;7.70;0.88;;;7.30;99.90;;;;;;5072902;28;20032;-34
2023/01/15 05:11:50;;;;;;;4.65;0.73;;;7.40;99.90;;;;;;5072379;28;20113;-37
2023/01/15 05:14:15;;;;;;;7.80;1.17;;;7.30;99.90;;;;;;5071929;28;20135;-37
2023/01/15 05:16:41;;;;;;;10.18;1.67;;;7.30;99.90;;;;;;5072404;28;20027;-37
2023/01/15 05:19:07;;;;;;;5.72;1.42;;;7.30;99.90;;;;;;5071563;28;20457;-32
2023/01/15 05:21:35;;;;;;;11.18;1.30;;;7.30;99.90;;;;;;5070636;28;20036;-36
2023/01/15 05:24:03;;;;;;;12.15;1.45;;;7.30;99.90;;;;;;5072250;28;20519;-40
2023/01/15 05:26:29;;;;;;;;;;;7.30;99.90;;;;;;5073579;28;20029;-37
2023/01/15 05:28:57;;;;;;;11.48;1.52;;;7.20;99.90;;;;;;5072639;28;19904;-37
2023/01/15 05:31:43;;;;;;;4.55;1.27;;;7.20;99.90;;;;;;5071922;28;20021;-39
2023/01/15 05:34:09;;;;;;;11.85;1.13;;;7.30;99.90;;;;;;5072747;28;20032;-39
2023/01/15 05:36:36;;;;;;;5.93;0.88;;;7.20;99.90;;;;;;5077988;28;20038;-36
2023/01/15 05:39:02;;;;;;;5.63;0.70;;;7.20;99.90;;;;;;5078548;28;20385;-37
2023/01/15 05:44:14;;;;;;;16.40;2.45;;;7.30;99.90;;;;;;5078114;28;20051;-36
2023/01/15 05:46:42;;;;;;;7.18;1.13;;;7.20;99.90;;;;;;5078361;28;20023;-33
2023/01/15 05:49:13;;;;;;;10.27;1.08;;;7.20;99.90;;;;;;5068961;28;20032;-37
2023/01/15 05:51:40;;;;;;;12.18;1.05;;;7.20;99.90;;;;;;5077632;28;20542;-31
2023/01/15 05:54:09;;;;;;;4.05;0.60;;;7.10;99.90;;;;;;5079427;28;20473;-36
2023/01/15 05:56:36;;;;;;;4.70;1.02;;;7.00;99.90;;;;;;5078055;28;20435;-37
2023/01/15 05:59:02;;;;;;;5.18;0.68;;;7.00;99.90;;;;;;5078172;28;20028;-38
2023/01/15 06:01:27;;;;;;;11.32;0.75;;;7.00;99.90;;;;;;5079630;28;20563;-38
2023/01/15 06:03:54;;;;;;;7.40;1.00;;;7.00;99.90;;;;;;5077979;28;20036;-37
2023/01/15 06:06:20;;;;;;;8.10;1.08;;;7.00;99.90;;;;;;5079063;28;20021;-39
2023/01/15 06:08:46;;;;;;;3.90;0.82;;;7.00;99.90;;;;;;5078371;28;20051;-39
2023/01/15 06:11:12;;;;;;;8.73;1.10;;;7.00;99.90;;;;;;5078368;28;20128;-35
2023/01/15 06:13:38;;;;;;;16.15;1.70;;;6.90;99.90;;;;;;5078952;28;20023;-33
2023/01/15 06:16:04;;;;;;;2.92;0.90;;;6.90;99.90;;;;;;5078411;28;20093;-36
2023/01/15 06:18:32;;;;;;;7.88;0.80;;;6.90;99.90;;;;;;5077368;28;20490;-36
2023/01/15 06:21:02;;;;;;;4.43;1.00;;;7.00;99.90;;;;;;5078854;28;20063;-39
2023/01/15 06:23:28;;;;;;;6.68;1.33;;;6.90;99.90;;;;;;5078658;28;20111;-37
2023/01/15 06:25:54;;;;;;;9.50;1.10;;;6.90;99.90;;;;;;5078931;28;20039;-40
2023/01/15 06:28:19;;;;;;;4.20;0.77;;;6.80;99.90;;;;;;5079151;28;20103;-37
2023/01/15 06:30:45;;;;;;;8.77;0.73;;;6.80;99.90;;;;;;5078744;28;20028;-36
2023/01/15 06:33:10;;;;;;;7.00;0.68;;;6.70;99.90;;;;;;5077929;28;20534;-36
2023/01/15 06:35:36;;;;;;;7.22;0.77;;;6.70;99.90;;;;;;5080089;28;20035;-39
2023/01/15 06:38:02;;;;;;;5.45;0.80;;;6.70;99.90;;;;;;5078599;28;20414;-36
2023/01/15 06:40:28;;;;;;;5.80;0.95;;;6.60;99.90;;;;;;5079675;28;20268;-36
2023/01/15 06:48:25;;;;;;;8.98;1.52;;;6.60;99.90;;;;;;5076315;28;20098;-33
2023/01/15 06:50:52;;;;;;;8.18;1.10;;;6.60;99.90;;;;;;5074776;28;20095;-36
2023/01/15 06:53:18;;;;;;;7.38;1.13;;;6.50;99.90;;;;;;5071641;28;20032;-35
2023/01/15 06:55:44;;;;;;;2.47;0.95;;;6.50;99.90;;;;;;5074411;28;20028;-38
2023/01/15 06:58:10;;;;;;;5.68;1.27;;;6.60;99.90;;;;;;5074816;28;20104;-36
2023/01/15 07:00:35;;;;;;;3.25;0.60;;;6.60;99.90;;;;;;5072361;28;20029;-37
2023/01/15 07:03:02;;;;;;;9.25;1.42;;;6.60;99.90;;;;;;5073199;28;20393;-37
2023/01/15 07:05:28;;;;;;;3.55;0.60;;;6.60;99.90;;;;;;5071380;28;20049;-36
2023/01/15 07:07:53;;;;;;;5.40;0.80;;;6.60;99.90;;;;;;5075106;28;20036;-34
2023/01/15 07:10:19;;;;;;;4.97;0.57;;;6.60;99.90;;;;;;5074849;28;20025;-36
2023/01/15 07:12:45;;;;;;;14.15;1.08;;;6.60;99.90;;;;;;5074595;28;20465;-39
2023/01/15 07:15:11;;;;;;;4.53;0.65;;;6.60;99.90;;;;;;5075006;28;20017;-37
2023/01/15 07:17:37;;;;;;;5.65;0.65;;;6.60;99.90;;;;;;5073254;28;20033;-38
2023/01/15 07:20:03;;;;;;;3.35;0.77;;;6.60;99.90;;;;;;5074399;28;20039;-38
2023/01/15 07:22:29;;;;;;;1.75;0.50;;;6.50;99.90;;;;;;5074499;28;20385;-39
2023/01/15 07:24:55;;;;;;;8.35;0.77;;;6.50;99.90;;;;;;5074810;28;20028;-36
2023/01/15 07:27:21;;;;;;;5.57;0.88;;;6.40;99.90;;;;;;5074913;28;20028;-37
2023/01/15 07:29:48;;;;;;;1.35;0.57;;;6.40;99.90;;;;;;5074814;28;20021;-37
2023/01/15 07:32:14;;;;;;;2.92;0.90;;;6.50;99.90;;;;;;5073955;28;20029;-38
2023/01/15 07:34:40;;;;;;;9.50;1.05;;;6.50;99.90;;;;;;5071880;28;20079;-37
2023/01/15 07:37:06;;;;;;;7.75;0.70;;;6.40;99.90;;;;;;5073808;28;20020;-37
2023/01/15 07:39:32;;;;;;;2.38;0.88;;;6.40;99.90;;;;;;5074574;28;20021;-36
2023/01/15 07:50:15;;;;;;;8.95;2.50;;;6.40;99.90;;;;;;5073606;28;20040;-44
2023/01/15 07:53:00;;;;;;;9.82;2.53;;;6.50;99.90;;;;;;5074466;28;20031;-39
2023/01/15 07:55:25;;;;;;;8.85;1.15;;;6.60;99.90;;;;;;5074335;28;20039;-43
2023/01/15 07:57:52;;;;;;;7.15;1.08;;;6.50;99.90;;;;;;5073762;28;20016;-41
2023/01/15 08:00:23;;;;;;;6.10;1.50;;;6.50;99.90;;;;;;5074031;28;20021;-43
2023/01/15 08:02:49;;;;;;;4.85;2.03;;;6.50;99.90;;;;;;5072730;28;20025;-43
2023/01/15 08:05:16;;;;;;;8.88;1.02;;;6.50;99.90;;;;;;5072812;28;20430;-44
2023/01/15 08:07:44;;;;;;;3.70;1.42;;;6.50;99.90;;;;;;5073390;28;20025;-44
2023/01/15 08:10:12;;;;;;;9.90;1.33;;;6.50;99.90;;;;;;5072853;28;20506;-42
2023/01/15 08:15:25;;;;;;;3.67;0.80;;;6.50;99.90;;;;;;5073744;28;20031;-43
2023/01/15 08:17:51;;;;;;;5.10;0.70;;;6.50;99.90;;;;;;5072927;28;20068;-39
2023/01/15 08:20:23;;;;;;;2.28;0.90;;;6.50;99.90;;;;;;5071475;28;20422;-40
2023/01/15 08:22:49;;;;;;;6.72;1.00;;;6.50;99.90;;;;;;5074067;28;20078;-41
2023/01/15 08:25:18;;;;;;;7.68;0.63;;;6.50;99.90;;;;;;5073704;28;20469;-42
2023/01/15 08:27:44;;;;;;;9.93;1.08;;;6.50;99.90;;;;;;5070947;28;20522;-41
2023/01/15 08:30:13;;;;;;;2.70;0.70;;;6.60;99.90;;;;;;5062754;28;20016;-42
2023/01/15 08:32:39;;;;;;;9.07;0.98;;;6.60;99.90;;;;;;5072925;28;20029;-43
2023/01/15 08:35:05;;;;;;;5.80;1.00;;;6.70;99.90;;;;;;5073337;28;20065;-40
2023/01/15 08:37:30;;;;;;;11.50;0.90;;;6.80;99.90;;;;;;5073432;28;20461;-43
2023/01/15 08:39:56;;;;;;;5.45;0.80;;;6.90;99.90;;;;;;5073414;28;20150;-41
2023/01/15 08:42:22;;;;;;;5.75;0.57;;;7.00;99.90;;;;;;5073093;28;20040;-38
2023/01/15 08:44:48;;;;;;;3.30;0.73;;;7.00;99.90;;;;;;5066812;28;20036;-40
2023/01/15 08:47:17;;;;;;;6.72;0.93;;;7.00;99.90;;;;;;5070783;28;20021;-38
2023/01/15 08:49:43;;;;;;;6.40;1.00;;;7.00;99.90;;;;;;5072167;28;20016;-41
2023/01/15 08:52:09;;;;;;;4.13;1.27;;;7.10;99.90;;;;;;5071288;28;20135;-41
2023/01/15 08:54:34;;;;;;;9.85;1.40;;;7.20;99.90;;;;;;5071209;28;20451;-40
2023/01/15 08:57:00;;;;;;;10.70;1.67;;;7.20;99.90;;;;;;5073208;28;20095;-42
2023/01/15 08:59:26;;;;;;;4.75;1.00;;;7.20;99.90;;;;;;5072157;28;20072;-40
2023/01/15 09:01:52;;;;;;;9.70;0.98;;;7.20;99.90;;;;;;5073292;28;20025;-45
2023/01/15 09:04:19;;;;;;;8.77;0.80;;;7.30;99.90;;;;;;5071852;28;20112;-41
2023/01/15 09:06:46;;;;;;;7.47;1.15;;;7.40;99.90;;;;;;5071224;28;20032;-40
2023/01/15 09:09:12;;;;;;;13.50;1.20;;;7.40;99.90;;;;;;5071481;28;20389;-41
2023/01/15 09:11:41;;;;;;;5.88;1.17;;;7.40;99.90;;;;;;5072878;28;20028;-42
2023/01/15 09:14:08;;;;;;;4.30;0.93;;;7.40;99.90;;;;;;5073112;28;20027;-45
2023/01/15 09:16:37;;;;;;;9.05;1.02;;;7.40;99.90;;;;;;5068980;28;20027;-44
2023/01/15 09:19:05;;;;;;;13.23;1.50;;;7.40;99.90;;;;;;5066731;28;20032;-41
2023/01/15 09:21:31;;;;;;;6.07;1.20;;;7.40;99.90;;;;;;5065478;28;20504;-44
2023/01/15 09:23:57;;;;;;;5.53;1.75;;;7.50;99.90;;;;;;5071470;28;20472;-41
2023/01/15 09:26:35;;;;;;;11.15;1.90;;;7.60;99.90;;;;;;5071019;28;20031;-39
2023/01/15 09:29:01;;;;;;;11.10;1.05;;;7.60;99.90;;;;;;5066526;28;20029;-44
2023/01/15 09:31:27;;;;;;;7.28;1.50;;;7.60;99.90;;;;;;5068156;28;20357;-48
2023/01/15 09:33:53;;;;;;;7.32;1.73;;;7.60;99.90;;;;;;5071126;28;20024;-44
2023/01/15 09:36:28;;;;;;;4.47;1.10;;;7.70;99.90;;;;;;5071791;28;20066;-43
2023/01/15 09:38:55;;;;;;;15.18;1.55;;;7.60;99.90;;;;;;5068459;28;20036;-42
2023/01/15 09:44:39;;;;;;;10.98;2.03;;;7.60;99.90;;;;;;5069605;28;20407;-45
2023/01/15 09:47:25;;;;;;;8.85;1.75;;;7.70;99.90;;;;;;5068696;28;20558;-44
2023/01/15 09:50:22;;;;;;;6.93;1.15;;;7.70;99.90;;;;;;5075587;28;20079;-44
2023/01/15 09:52:53;;;;;;;1.88;1.13;;;7.70;99.90;;;;;;5068370;28;20036;-41
2023/01/15 09:55:28;;;;;;;10.95;1.50;;;7.70;99.90;;;;;;5065154;28;20032;-43
2023/01/15 09:57:58;;;;;;;8.35;1.15;;;7.70;99.90;;;;;;5067513;28;20107;-42
2023/01/15 10:00:26;;;;;;;9.07;0.98;;;7.70;99.90;;;;;;5069740;28;20037;-45
2023/01/15 10:03:01;;;;;;;5.45;1.00;;;7.80;99.90;;;;;;5069437;28;20020;-43
2023/01/15 10:05:31;;;;;;;4.72;0.88;;;7.90;99.90;;;;;;5064982;28;20507;-38
2023/01/15 10:08:22;;;;;;;9.10;1.40;;;8.00;99.90;;;;;;5069567;28;20589;-40
2023/01/15 10:10:55;;;;;;;10.38;0.93;;;8.20;99.90;;;;;;5069390;28;20024;-43
2023/01/15 10:13:42;;;;;;;9.95;1.40;;;8.40;99.90;;;;;;5068952;28;20064;-44
2023/01/15 10:16:09;;;;;;;6.35;0.88;;;8.50;99.90;;;;;;5066695;28;20039;-43
2023/01/15 10:18:36;;;;;;;8.15;1.83;;;8.50;99.90;;;;;;5064837;28;20029;-43
2023/01/15 10:21:06;;;;;;;7.82;2.28;;;8.40;99.90;;;;;;5067113;28;20531;-46
2023/01/15 10:23:46;;;;;;;11.75;1.67;;;8.40;99.90;;;;;;5073566;28;20033;-43
2023/01/15 10:26:17;;;;;;;15.27;1.63;;;8.40;99.90;;;;;;5072613;28;20025;-45
2023/01/15 10:29:22;;;;;;;4.50;1.40;;;8.40;99.90;;;;;;5066757;28;20032;-43
2023/01/15 10:31:58;;;;;;;10.85;1.20;;;8.40;99.90;;;;;;5071105;28;20074;-41
2023/01/15 10:35:03;;;;;;;9.98;0.95;;;8.40;99.90;;;;;;5073218;28;20468;-41
2023/01/15 10:37:42;;;;;;;10.38;1.08;;;8.40;99.90;;;;;;5065141;28;20047;-46
2023/01/15 10:40:41;;;;;;;19.88;1.35;;;8.40;99.90;;;;;;5072019;28;20036;-34
2023/01/15 10:43:27;;;;;;;3.90;1.17;;;8.40;99.90;;;;;;5064666;28;20507;-47
2023/01/15 10:45:58;;;;;;;7.75;1.40;;;8.40;99.90;;;;;;5073628;28;20477;-43
2023/01/15 10:48:41;;;;;;;11.60;1.10;;;8.30;99.90;;;;;;5074947;28;20032;-45
2023/01/15 10:51:30;;;;;;;9.55;0.98;;;8.20;99.90;;;;;;5073087;28;20032;-41
2023/01/15 10:54:23;;;;;;;7.80;1.23;;;8.20;99.90;;;;;;5073636;28;20495;-41
2023/01/15 10:57:11;;;;;;;3.97;1.05;;;8.10;99.90;;;;;;5072220;28;20031;-44
2023/01/15 10:59:59;;;;;;;2.80;1.23;;;8.10;99.90;;;;;;5075237;28;20503;-42
2023/01/15 11:02:31;;;;;;;;;;;8.20;99.90;;;;;;5073931;28;20074;-46
2023/01/15 11:04:57;;;;;;;10.80;2.13;;;8.20;99.90;;;;;;5071101;28;19912;-45
2023/01/15 11:07:38;;;;;;;4.20;0.80;;;8.30;99.90;;;;;;5073682;28;20558;-43
2023/01/15 11:10:08;;;;;;;2.00;0.57;;;8.30;99.90;;;;;;5071084;28;20025;-50
2023/01/15 11:21:17;;;;;;;7.03;0.68;;;8.00;99.90;;;;;;5068290;28;20035;-40
2023/01/15 11:23:44;;;;;;;12.88;1.40;;;8.00;99.90;;;;;;5068610;28;20477;-42
2023/01/15 11:26:18;;;;;;;3.05;0.95;;;8.10;99.90;;;;;;5073942;28;20020;-44
2023/01/15 11:28:45;;;;;;;6.45;1.23;;;8.10;99.90;;;;;;5074816;28;20492;-42
2023/01/15 11:31:12;;;;;;;14.13;2.03;;;8.10;99.90;;;;;;5071040;28;20423;-40
2023/01/15 11:33:39;;;;;;;5.15;1.17;;;8.10;99.90;;;;;;5071578;28;20476;-46
2023/01/15 11:36:21;;;;;;;16.88;1.35;;;8.10;99.90;;;;;;5072635;28;20697;-46
2023/01/15 11:38:49;;;;;;;9.32;1.52;;;8.10;99.90;;;;;;5072177;28;20029;-44
2023/01/15 11:41:21;;;;;;;5.63;0.90;;;8.10;99.90;;;;;;5072663;28;20114;-44
2023/01/15 11:52:11;;;;;;;8.05;0.68;;;8.10;99.90;;;;;;5073409;28;20465;-43
2023/01/15 11:54:44;;;;;;;10.07;1.38;;;8.10;99.90;;;;;;5072495;28;20044;-42
2023/01/15 11:57:10;;;;;;;9.07;1.30;;;8.10;99.90;;;;;;5074579;28;20496;-52
2023/01/15 11:59:36;;;;;;;1.95;0.77;;;8.20;99.90;;;;;;5071335;28;20033;-44
2023/01/15 12:02:15;;;;;;;9.88;1.42;;;8.20;99.90;;;;;;5066863;28;20468;-45
2023/01/15 12:05:02;;;;;;;5.38;1.23;;;8.20;99.90;;;;;;5072959;28;20031;-40
2023/01/15 12:07:28;;;;;;;6.93;1.27;;;8.20;99.90;;;;;;5069724;28;20583;-42
2023/01/15 12:10:13;;;;;;;12.23;1.42;;;8.20;99.90;;;;;;5069288;28;20024;-44
2023/01/15 12:13:08;;;;;;;11.45;1.05;;;8.00;99.90;;;;;;5065663;28;20032;-43
2023/01/15 12:16:02;;;;;;;10.95;1.02;;;8.00;99.90;;;;;;5065471;28;20446;-40
2023/01/15 12:18:48;;;;;;;9.88;1.65;;;7.70;99.90;;;;;;5073907;28;20361;-44
2023/01/15 12:21:59;;;;;;;16.85;1.67;;;7.40;99.90;;;;;;5073754;28;20082;-40
2023/01/15 12:24:47;;;;;;;5.43;1.17;;;7.20;99.90;;;;;;5072886;28;20477;-37
2023/01/15 12:27:21;;;;;;;5.93;0.88;;;7.10;99.90;;;;;;5067895;28;20458;-36
2023/01/15 12:30:26;;;;;;;3.65;0.93;;;7.00;99.90;;;;;;5068678;28;20033;-37
2023/01/15 12:32:58;;;;;;;0.98;0.70;;;7.00;99.90;;;;;;5067381;28;20506;-38
2023/01/15 12:35:31;;;;;;;8.65;1.17;;;7.10;99.90;;;;;;5073417;28;20158;-36
2023/01/15 12:38:08;;;;;;;3.97;1.42;;;7.10;99.90;;;;;;5073460;28;20032;-38
2023/01/15 12:40:42;;;;;;;7.72;1.15;;;7.10;99.90;;;;;;5067631;28;20036;-37
2023/01/15 12:46:05;;;;;;;6.75;1.48;;;7.10;99.90;;;;;;5070881;28;20511;-38
2023/01/15 12:48:44;;;;;;;6.50;1.52;;;7.10;99.90;;;;;;5073060;28;20481;-33
2023/01/15 12:51:16;;;;;;;5.05;1.17;;;7.10;99.90;;;;;;5073101;28;20468;-35
2023/01/15 12:53:46;;;;;;;8.05;2.25;;;7.00;99.90;;;;;;5073805;28;20114;-39
2023/01/15 12:56:25;;;;;;;4.18;0.75;;;7.10;99.90;;;;;;5076028;28;20059;-36
2023/01/15 12:59:09;;;;;;;1.33;0.90;;;7.10;99.90;;;;;;5070900;28;20055;-39
2023/01/15 13:01:44;;;;;;;3.63;1.02;;;7.20;99.90;;;;;;5071586;28;20530;-38
2023/01/15 13:04:16;;;;;;;10.13;1.20;;;7.20;99.90;;;;;;5072779;28;20100;-37
2023/01/15 13:06:47;;;;;;;11.55;1.95;;;7.30;99.90;;;;;;5073162;28;20048;-39
2023/01/15 13:09:42;;;;;;;7.18;1.98;;;7.40;99.90;;;;;;5069022;28;20031;-38
2023/01/15 13:12:13;;;;;;;8.13;1.10;;;7.50;99.90;;;;;;5071205;28;20056;-35
2023/01/15 13:14:40;;;;;;;5.07;1.08;;;7.60;99.90;;;;;;5072273;28;20463;-40
2023/01/15 13:17:19;;;;;;;12.07;0.93;;;7.70;99.90;;;;;;5069708;28;20024;-40
2023/01/15 13:19:56;;;;;;;15.73;2.60;;;7.80;99.90;;;;;;5068941;28;20031;-36
2023/01/15 13:22:26;;;;;;;6.78;0.90;;;7.90;99.90;;;;;;5070828;28;20032;-40
2023/01/15 13:25:19;;;;;;;6.60;1.38;;;7.90;99.90;;;;;;5070790;28;20464;-36
2023/01/15 13:27:50;;;;;;;6.00;1.45;;;7.90;99.90;;;;;;5060878;28;20025;-40
2023/01/15 13:30:25;;;;;;;9.27;1.98;;;7.90;99.90;;;;;;5072824;28;20472;-38
2023/01/15 13:32:55;;;;;;;11.63;1.42;;;8.00;99.90;;;;;;5071642;28;20492;-35
2023/01/15 13:35:35;;;;;;;16.45;1.77;;;8.00;99.90;;;;;;5070601;28;20025;-37
2023/01/15 13:38:04;;;;;;;9.70;1.35;;;7.90;99.90;;;;;;5070864;28;20031;-39
2023/01/15 13:40:40;;;;;;;15.20;2.03;;;7.90;99.90;;;;;;5071985;28;20516;-37
2023/01/15 13:43:08;;;;;;;6.75;1.40;;;7.90;99.90;;;;;;5063790;28;20056;-34
2023/01/15 13:45:38;;;;;;;7.75;1.38;;;8.00;99.90;;;;;;5069387;28;20415;-39
2023/01/15 13:48:15;;;;;;;7.97;1.23;;;7.90;99.90;;;;;;5072726;28;20456;-38
2023/01/15 13:50:53;;;;;;;7.13;1.23;;;7.90;99.90;;;;;;5070389;28;20058;-39
2023/01/15 13:53:33;;;;;;;11.88;1.65;;;7.90;99.90;;;;;;5071825;28;20489;-36
2023/01/15 13:56:04;;;;;;;11.65;1.80;;;7.90;99.90;;;;;;5073824;28;20024;-35
2023/01/15 13:58:37;;;;;;;13.18;1.10;;;7.90;99.90;;;;;;5075857;28;20055;-38
2023/01/15 14:01:40;;;;;;;8.68;1.67;;;7.90;99.90;;;;;;5076088;28;20530;-36
2023/01/15 14:04:09;;;;;;;10.65;1.98;;;7.90;99.90;;;;;;5060368;28;20109;-36
2023/01/15 14:06:42;;;;;;;6.43;1.50;;;7.90;99.90;;;;;;5076137;28;20032;-33